sensor_id;sensor_type;location;lat;lon;timestamp;P1;durP1;ratioP1;P2;durP2;ratioP2
59788;SDS011;47353;51.614;5.530;2024-03-02T00:00:14;2.42;;;1.48;;
59788;SDS011;47353;51.614;5.530;2024-03-02T00:02:43;3.63;;;1.60;;
59788;SDS011;47353;51.614;5.530;2024-03-02T00:05:16;2.75;;;1.40;;
59788;SDS011;47353;51.614;5.530;2024-03-02T00:07:43;3.72;;;1.48;;
59788;SDS011;47353;51.614;5.530;2024-03-02T00:10:11;2.88;;;1.42;;
59788;SDS011;47353;51.614;5.530;2024-03-02T00:12:39;3.47;;;1.45;;
59788;SDS011;47353;51.614;5.530;2024-03-02T00:17:55;3.17;;;1.40;;
59788;SDS011;47353;51.614;5.530;2024-03-02T00:20:24;3.17;;;1.40;;
59788;SDS011;47353;51.614;5.530;2024-03-02T00:22:53;3.08;;;1.40;;
59788;SDS011;47353;51.614;5.530;2024-03-02T00:28:20;1.13;;;0.52;;
59788;SDS011;47353;51.614;5.530;2024-03-02T00:33:23;1.67;;;0.60;;
59788;SDS011;47353;51.614;5.530;2024-03-02T00:35:51;0.93;;;0.50;;
59788;SDS011;47353;51.614;5.530;2024-03-02T00:38:17;1.00;;;0.43;;
59788;SDS011;47353;51.614;5.530;2024-03-02T00:40:43;0.63;;;0.40;;
59788;SDS011;47353;51.614;5.530;2024-03-02T00:43:19;0.80;;;0.40;;
59788;SDS011;47353;51.614;5.530;2024-03-02T00:46:03;0.60;;;0.40;;
59788;SDS011;47353;51.614;5.530;2024-03-02T00:48:28;0.82;;;0.45;;
59788;SDS011;47353;51.614;5.530;2024-03-02T00:50:56;0.50;;;0.50;;
59788;SDS011;47353;51.614;5.530;2024-03-02T00:53:22;0.90;;;0.40;;
59788;SDS011;47353;51.614;5.530;2024-03-02T00:55:51;0.70;;;0.40;;
59788;SDS011;47353;51.614;5.530;2024-03-02T00:58:17;0.70;;;0.40;;
59788;SDS011;47353;51.614;5.530;2024-03-02T01:00:42;0.40;;;0.40;;
59788;SDS011;47353;51.614;5.530;2024-03-02T01:03:07;0.75;;;0.60;;
59788;SDS011;47353;51.614;5.530;2024-03-02T01:05:33;0.60;;;0.40;;
59788;SDS011;47353;51.614;5.530;2024-03-02T01:07:59;0.40;;;0.40;;
59788;SDS011;47353;51.614;5.530;2024-03-02T01:10:24;1.88;;;0.65;;
59788;SDS011;47353;51.614;5.530;2024-03-02T01:12:51;0.68;;;0.50;;
59788;SDS011;47353;51.614;5.530;2024-03-02T01:15:16;0.32;;;0.32;;
59788;SDS011;47353;51.614;5.530;2024-03-02T01:17:42;2.30;;;0.60;;
59788;SDS011;47353;51.614;5.530;2024-03-02T01:20:08;0.40;;;0.40;;
59788;SDS011;47353;51.614;5.530;2024-03-02T01:22:34;0.68;;;0.60;;
59788;SDS011;47353;51.614;5.530;2024-03-02T01:25:00;0.50;;;0.50;;
59788;SDS011;47353;51.614;5.530;2024-03-02T01:27:26;0.60;;;0.50;;
59788;SDS011;47353;51.614;5.530;2024-03-02T01:29:52;0.50;;;0.50;;
59788;SDS011;47353;51.614;5.530;2024-03-02T01:32:17;1.42;;;0.60;;
59788;SDS011;47353;51.614;5.530;2024-03-02T01:34:43;1.20;;;0.55;;
59788;SDS011;47353;51.614;5.530;2024-03-02T01:37:08;0.63;;;0.50;;
59788;SDS011;47353;51.614;5.530;2024-03-02T01:39:35;2.00;;;0.52;;
59788;SDS011;47353;51.614;5.530;2024-03-02T01:42:00;1.20;;;0.50;;
59788;SDS011;47353;51.614;5.530;2024-03-02T01:44:26;0.52;;;0.40;;
59788;SDS011;47353;51.614;5.530;2024-03-02T01:46:52;1.92;;;0.60;;
59788;SDS011;47353;51.614;5.530;2024-03-02T01:49:17;0.70;;;0.50;;
59788;SDS011;47353;51.614;5.530;2024-03-02T01:51:44;0.65;;;0.50;;
59788;SDS011;47353;51.614;5.530;2024-03-02T01:54:09;0.75;;;0.55;;
59788;SDS011;47353;51.614;5.530;2024-03-02T01:56:35;0.55;;;0.50;;
59788;SDS011;47353;51.614;5.530;2024-03-02T01:59:00;0.70;;;0.50;;
59788;SDS011;47353;51.614;5.530;2024-03-02T02:01:26;0.60;;;0.60;;
59788;SDS011;47353;51.614;5.530;2024-03-02T02:03:52;0.50;;;0.50;;
59788;SDS011;47353;51.614;5.530;2024-03-02T02:06:17;0.85;;;0.60;;
59788;SDS011;47353;51.614;5.530;2024-03-02T02:08:43;0.85;;;0.50;;
59788;SDS011;47353;51.614;5.530;2024-03-02T02:11:08;0.80;;;0.50;;
59788;SDS011;47353;51.614;5.530;2024-03-02T02:13:34;0.63;;;0.40;;
59788;SDS011;47353;51.614;5.530;2024-03-02T02:16:06;1.38;;;0.50;;
59788;SDS011;47353;51.614;5.530;2024-03-02T02:18:32;0.52;;;0.40;;
59788;SDS011;47353;51.614;5.530;2024-03-02T02:20:58;0.65;;;0.50;;
59788;SDS011;47353;51.614;5.530;2024-03-02T02:23:23;0.68;;;0.40;;
59788;SDS011;47353;51.614;5.530;2024-03-02T02:25:48;1.05;;;0.50;;
59788;SDS011;47353;51.614;5.530;2024-03-02T02:28:14;0.77;;;0.50;;
59788;SDS011;47353;51.614;5.530;2024-03-02T02:30:39;1.08;;;0.52;;
59788;SDS011;47353;51.614;5.530;2024-03-02T02:33:05;0.52;;;0.47;;
59788;SDS011;47353;51.614;5.530;2024-03-02T02:35:30;1.08;;;0.50;;
59788;SDS011;47353;51.614;5.530;2024-03-02T02:37:55;2.17;;;1.20;;
59788;SDS011;47353;51.614;5.530;2024-03-02T02:40:23;1.42;;;0.60;;
59788;SDS011;47353;51.614;5.530;2024-03-02T02:42:48;1.67;;;0.60;;
59788;SDS011;47353;51.614;5.530;2024-03-02T02:45:14;1.00;;;0.50;;
59788;SDS011;47353;51.614;5.530;2024-03-02T02:47:40;0.93;;;0.60;;
59788;SDS011;47353;51.614;5.530;2024-03-02T02:50:10;0.93;;;0.40;;
59788;SDS011;47353;51.614;5.530;2024-03-02T02:52:36;1.20;;;0.60;;
59788;SDS011;47353;51.614;5.530;2024-03-02T02:55:04;0.80;;;0.57;;
59788;SDS011;47353;51.614;5.530;2024-03-02T02:57:31;1.80;;;0.60;;
59788;SDS011;47353;51.614;5.530;2024-03-02T03:00:00;0.50;;;0.40;;
59788;SDS011;47353;51.614;5.530;2024-03-02T03:02:30;0.98;;;0.50;;
59788;SDS011;47353;51.614;5.530;2024-03-02T03:04:56;0.80;;;0.52;;
59788;SDS011;47353;51.614;5.530;2024-03-02T03:07:22;0.77;;;0.50;;
59788;SDS011;47353;51.614;5.530;2024-03-02T03:09:48;0.93;;;0.50;;
59788;SDS011;47353;51.614;5.530;2024-03-02T03:12:13;0.80;;;0.60;;
59788;SDS011;47353;51.614;5.530;2024-03-02T03:14:40;0.77;;;0.50;;
59788;SDS011;47353;51.614;5.530;2024-03-02T03:17:06;1.30;;;0.50;;
59788;SDS011;47353;51.614;5.530;2024-03-02T03:19:33;0.90;;;0.60;;
59788;SDS011;47353;51.614;5.530;2024-03-02T03:21:58;0.77;;;0.50;;
59788;SDS011;47353;51.614;5.530;2024-03-02T03:24:24;1.10;;;0.65;;
59788;SDS011;47353;51.614;5.530;2024-03-02T03:26:49;1.50;;;0.60;;
59788;SDS011;47353;51.614;5.530;2024-03-02T03:29:14;1.25;;;0.40;;
59788;SDS011;47353;51.614;5.530;2024-03-02T03:31:40;0.90;;;0.50;;
59788;SDS011;47353;51.614;5.530;2024-03-02T03:34:05;0.47;;;0.40;;
59788;SDS011;47353;51.614;5.530;2024-03-02T03:36:31;1.05;;;0.40;;
59788;SDS011;47353;51.614;5.530;2024-03-02T03:38:56;1.65;;;0.50;;
59788;SDS011;47353;51.614;5.530;2024-03-02T03:41:23;1.10;;;0.50;;
59788;SDS011;47353;51.614;5.530;2024-03-02T03:43:49;1.20;;;0.40;;
59788;SDS011;47353;51.614;5.530;2024-03-02T03:46:14;0.95;;;0.52;;
59788;SDS011;47353;51.614;5.530;2024-03-02T03:48:40;0.50;;;0.50;;
59788;SDS011;47353;51.614;5.530;2024-03-02T03:51:07;0.98;;;0.40;;
59788;SDS011;47353;51.614;5.530;2024-03-02T03:53:32;0.88;;;0.50;;
59788;SDS011;47353;51.614;5.530;2024-03-02T03:55:57;1.92;;;0.50;;
59788;SDS011;47353;51.614;5.530;2024-03-02T03:58:23;1.25;;;0.60;;
59788;SDS011;47353;51.614;5.530;2024-03-02T04:00:48;0.93;;;0.50;;
59788;SDS011;47353;51.614;5.530;2024-03-02T04:03:14;0.45;;;0.40;;
59788;SDS011;47353;51.614;5.530;2024-03-02T04:05:39;1.10;;;0.50;;
59788;SDS011;47353;51.614;5.530;2024-03-02T04:08:04;0.63;;;0.47;;
59788;SDS011;47353;51.614;5.530;2024-03-02T04:10:30;0.40;;;0.40;;
59788;SDS011;47353;51.614;5.530;2024-03-02T04:12:55;1.25;;;0.40;;
59788;SDS011;47353;51.614;5.530;2024-03-02T04:15:21;0.50;;;0.45;;
59788;SDS011;47353;51.614;5.530;2024-03-02T04:17:48;1.33;;;0.50;;
59788;SDS011;47353;51.614;5.530;2024-03-02T04:20:13;1.13;;;0.50;;
59788;SDS011;47353;51.614;5.530;2024-03-02T04:22:39;1.10;;;0.50;;
59788;SDS011;47353;51.614;5.530;2024-03-02T04:25:04;0.90;;;0.50;;
59788;SDS011;47353;51.614;5.530;2024-03-02T04:27:30;0.60;;;0.60;;
59788;SDS011;47353;51.614;5.530;2024-03-02T04:29:58;0.70;;;0.50;;
59788;SDS011;47353;51.614;5.530;2024-03-02T04:32:26;0.60;;;0.60;;
59788;SDS011;47353;51.614;5.530;2024-03-02T04:34:52;1.17;;;0.60;;
59788;SDS011;47353;51.614;5.530;2024-03-02T04:37:17;1.23;;;0.60;;
59788;SDS011;47353;51.614;5.530;2024-03-02T04:39:43;0.95;;;0.55;;
59788;SDS011;47353;51.614;5.530;2024-03-02T04:42:08;0.52;;;0.50;;
59788;SDS011;47353;51.614;5.530;2024-03-02T04:44:34;1.77;;;0.50;;
59788;SDS011;47353;51.614;5.530;2024-03-02T04:46:59;0.73;;;0.50;;
59788;SDS011;47353;51.614;5.530;2024-03-02T04:49:24;0.60;;;0.60;;
59788;SDS011;47353;51.614;5.530;2024-03-02T04:51:50;0.98;;;0.50;;
59788;SDS011;47353;51.614;5.530;2024-03-02T04:54:15;1.10;;;0.70;;
59788;SDS011;47353;51.614;5.530;2024-03-02T04:56:41;1.38;;;0.60;;
59788;SDS011;47353;51.614;5.530;2024-03-02T04:59:09;0.82;;;0.60;;
59788;SDS011;47353;51.614;5.530;2024-03-02T05:01:35;1.10;;;0.55;;
59788;SDS011;47353;51.614;5.530;2024-03-02T05:04:01;1.38;;;0.50;;
59788;SDS011;47353;51.614;5.530;2024-03-02T05:06:26;2.22;;;0.70;;
59788;SDS011;47353;51.614;5.530;2024-03-02T05:08:52;2.58;;;0.75;;
59788;SDS011;47353;51.614;5.530;2024-03-02T05:11:17;1.30;;;0.50;;
59788;SDS011;47353;51.614;5.530;2024-03-02T05:14:01;1.58;;;0.60;;
59788;SDS011;47353;51.614;5.530;2024-03-02T05:16:27;0.90;;;0.50;;
59788;SDS011;47353;51.614;5.530;2024-03-02T05:18:52;2.05;;;0.70;;
59788;SDS011;47353;51.614;5.530;2024-03-02T05:21:17;1.00;;;0.52;;
59788;SDS011;47353;51.614;5.530;2024-03-02T05:23:43;1.00;;;0.50;;
59788;SDS011;47353;51.614;5.530;2024-03-02T05:26:09;1.52;;;0.60;;
59788;SDS011;47353;51.614;5.530;2024-03-02T05:28:37;1.20;;;0.50;;
59788;SDS011;47353;51.614;5.530;2024-03-02T05:31:03;0.95;;;0.65;;
59788;SDS011;47353;51.614;5.530;2024-03-02T05:33:29;0.57;;;0.50;;
59788;SDS011;47353;51.614;5.530;2024-03-02T05:35:56;1.10;;;0.70;;
59788;SDS011;47353;51.614;5.530;2024-03-02T05:38:22;0.82;;;0.50;;
59788;SDS011;47353;51.614;5.530;2024-03-02T05:40:47;0.82;;;0.50;;
59788;SDS011;47353;51.614;5.530;2024-03-02T05:43:13;0.98;;;0.68;;
59788;SDS011;47353;51.614;5.530;2024-03-02T05:45:38;2.00;;;0.60;;
59788;SDS011;47353;51.614;5.530;2024-03-02T05:48:05;1.05;;;0.60;;
59788;SDS011;47353;51.614;5.530;2024-03-02T05:50:32;1.38;;;0.60;;
59788;SDS011;47353;51.614;5.530;2024-03-02T05:52:58;0.85;;;0.50;;
59788;SDS011;47353;51.614;5.530;2024-03-02T05:55:23;1.38;;;0.60;;
59788;SDS011;47353;51.614;5.530;2024-03-02T05:57:49;1.83;;;0.57;;
59788;SDS011;47353;51.614;5.530;2024-03-02T06:00:28;0.90;;;0.60;;
59788;SDS011;47353;51.614;5.530;2024-03-02T06:02:53;2.05;;;0.60;;
59788;SDS011;47353;51.614;5.530;2024-03-02T06:05:19;1.33;;;0.60;;
59788;SDS011;47353;51.614;5.530;2024-03-02T06:07:44;1.55;;;0.50;;
59788;SDS011;47353;51.614;5.530;2024-03-02T06:10:10;1.38;;;0.63;;
59788;SDS011;47353;51.614;5.530;2024-03-02T06:12:36;1.20;;;0.50;;
59788;SDS011;47353;51.614;5.530;2024-03-02T06:15:01;0.77;;;0.40;;
59788;SDS011;47353;51.614;5.530;2024-03-02T06:17:27;1.55;;;0.60;;
59788;SDS011;47353;51.614;5.530;2024-03-02T06:19:52;1.60;;;0.60;;
59788;SDS011;47353;51.614;5.530;2024-03-02T06:22:17;1.80;;;0.60;;
59788;SDS011;47353;51.614;5.530;2024-03-02T06:24:44;1.98;;;0.50;;
59788;SDS011;47353;51.614;5.530;2024-03-02T06:27:09;2.15;;;0.60;;
59788;SDS011;47353;51.614;5.530;2024-03-02T06:29:35;3.17;;;0.80;;
59788;SDS011;47353;51.614;5.530;2024-03-02T06:32:00;2.30;;;0.60;;
59788;SDS011;47353;51.614;5.530;2024-03-02T06:34:25;1.65;;;0.63;;
59788;SDS011;47353;51.614;5.530;2024-03-02T06:36:51;0.68;;;0.52;;
59788;SDS011;47353;51.614;5.530;2024-03-02T06:39:16;1.13;;;0.50;;
59788;SDS011;47353;51.614;5.530;2024-03-02T06:41:42;1.05;;;0.57;;
59788;SDS011;47353;51.614;5.530;2024-03-02T06:44:12;1.77;;;0.70;;
59788;SDS011;47353;51.614;5.530;2024-03-02T06:46:37;1.52;;;0.70;;
59788;SDS011;47353;51.614;5.530;2024-03-02T06:49:03;3.13;;;0.70;;
59788;SDS011;47353;51.614;5.530;2024-03-02T06:51:29;2.30;;;0.60;;
59788;SDS011;47353;51.614;5.530;2024-03-02T06:53:54;4.30;;;0.80;;
59788;SDS011;47353;51.614;5.530;2024-03-02T06:56:20;2.42;;;0.80;;
59788;SDS011;47353;51.614;5.530;2024-03-02T06:58:46;1.13;;;0.60;;
59788;SDS011;47353;51.614;5.530;2024-03-02T07:01:12;2.17;;;0.70;;
59788;SDS011;47353;51.614;5.530;2024-03-02T07:03:38;1.95;;;0.55;;
59788;SDS011;47353;51.614;5.530;2024-03-02T07:06:04;1.77;;;0.82;;
59788;SDS011;47353;51.614;5.530;2024-03-02T07:08:30;1.52;;;0.60;;
59788;SDS011;47353;51.614;5.530;2024-03-02T07:10:56;1.25;;;0.50;;
59788;SDS011;47353;51.614;5.530;2024-03-02T07:13:22;1.25;;;0.60;;
59788;SDS011;47353;51.614;5.530;2024-03-02T07:15:47;1.65;;;0.55;;
59788;SDS011;47353;51.614;5.530;2024-03-02T07:18:31;2.10;;;0.52;;
59788;SDS011;47353;51.614;5.530;2024-03-02T07:20:57;2.10;;;0.60;;
59788;SDS011;47353;51.614;5.530;2024-03-02T07:23:26;2.85;;;0.63;;
59788;SDS011;47353;51.614;5.530;2024-03-02T07:25:55;4.55;;;0.73;;
59788;SDS011;47353;51.614;5.530;2024-03-02T07:28:22;2.28;;;0.65;;
59788;SDS011;47353;51.614;5.530;2024-03-02T07:30:57;2.15;;;0.75;;
59788;SDS011;47353;51.614;5.530;2024-03-02T07:33:26;0.90;;;0.50;;
59788;SDS011;47353;51.614;5.530;2024-03-02T07:35:52;1.77;;;0.68;;
59788;SDS011;47353;51.614;5.530;2024-03-02T07:38:18;2.22;;;0.70;;
59788;SDS011;47353;51.614;5.530;2024-03-02T07:40:44;3.47;;;0.85;;
59788;SDS011;47353;51.614;5.530;2024-03-02T07:43:09;2.95;;;0.60;;
59788;SDS011;47353;51.614;5.530;2024-03-02T07:45:35;2.05;;;0.80;;
59788;SDS011;47353;51.614;5.530;2024-03-02T07:48:01;1.23;;;0.60;;
59788;SDS011;47353;51.614;5.530;2024-03-02T07:50:29;4.20;;;1.08;;
59788;SDS011;47353;51.614;5.530;2024-03-02T07:52:55;1.20;;;0.70;;
59788;SDS011;47353;51.614;5.530;2024-03-02T07:55:21;2.70;;;0.70;;
59788;SDS011;47353;51.614;5.530;2024-03-02T07:57:46;1.38;;;0.60;;
59788;SDS011;47353;51.614;5.530;2024-03-02T08:00:12;1.83;;;0.73;;
59788;SDS011;47353;51.614;5.530;2024-03-02T08:02:39;2.38;;;0.70;;
59788;SDS011;47353;51.614;5.530;2024-03-02T08:05:05;1.65;;;0.63;;
59788;SDS011;47353;51.614;5.530;2024-03-02T08:07:31;2.50;;;0.70;;
59788;SDS011;47353;51.614;5.530;2024-03-02T08:09:57;1.98;;;0.80;;
59788;SDS011;47353;51.614;5.530;2024-03-02T08:12:22;1.13;;;0.68;;
59788;SDS011;47353;51.614;5.530;2024-03-02T08:14:48;2.45;;;0.70;;
59788;SDS011;47353;51.614;5.530;2024-03-02T08:17:14;1.63;;;0.70;;
59788;SDS011;47353;51.614;5.530;2024-03-02T08:19:39;1.90;;;0.85;;
59788;SDS011;47353;51.614;5.530;2024-03-02T08:22:05;2.05;;;0.77;;
59788;SDS011;47353;51.614;5.530;2024-03-02T08:24:31;3.17;;;0.80;;
59788;SDS011;47353;51.614;5.530;2024-03-02T08:26:58;1.83;;;0.70;;
59788;SDS011;47353;51.614;5.530;2024-03-02T08:29:24;2.72;;;0.77;;
59788;SDS011;47353;51.614;5.530;2024-03-02T08:31:50;2.88;;;0.90;;
59788;SDS011;47353;51.614;5.530;2024-03-02T08:34:15;2.65;;;1.00;;
59788;SDS011;47353;51.614;5.530;2024-03-02T08:36:41;2.80;;;0.98;;
59788;SDS011;47353;51.614;5.530;2024-03-02T08:39:07;3.53;;;0.90;;
59788;SDS011;47353;51.614;5.530;2024-03-02T08:44:05;1.77;;;0.73;;
59788;SDS011;47353;51.614;5.530;2024-03-02T08:46:31;3.35;;;0.95;;
59788;SDS011;47353;51.614;5.530;2024-03-02T08:48:56;1.73;;;0.60;;
59788;SDS011;47353;51.614;5.530;2024-03-02T08:51:22;2.28;;;0.80;;
59788;SDS011;47353;51.614;5.530;2024-03-02T08:53:47;3.88;;;1.02;;
59788;SDS011;47353;51.614;5.530;2024-03-02T08:56:13;4.18;;;0.85;;
59788;SDS011;47353;51.614;5.530;2024-03-02T08:58:38;3.03;;;0.80;;
59788;SDS011;47353;51.614;5.530;2024-03-02T09:01:04;4.43;;;0.80;;
59788;SDS011;47353;51.614;5.530;2024-03-02T09:03:29;2.65;;;0.82;;
59788;SDS011;47353;51.614;5.530;2024-03-02T09:05:58;2.65;;;0.75;;
59788;SDS011;47353;51.614;5.530;2024-03-02T09:08:23;1.77;;;0.70;;
59788;SDS011;47353;51.614;5.530;2024-03-02T09:10:49;1.63;;;0.50;;
59788;SDS011;47353;51.614;5.530;2024-03-02T09:13:14;1.88;;;0.60;;
59788;SDS011;47353;51.614;5.530;2024-03-02T09:15:39;1.20;;;0.55;;
59788;SDS011;47353;51.614;5.530;2024-03-02T09:18:14;1.50;;;0.70;;
59788;SDS011;47353;51.614;5.530;2024-03-02T09:20:40;1.52;;;0.70;;
59788;SDS011;47353;51.614;5.530;2024-03-02T09:23:05;3.47;;;0.70;;
59788;SDS011;47353;51.614;5.530;2024-03-02T09:25:31;1.20;;;0.55;;
59788;SDS011;47353;51.614;5.530;2024-03-02T09:27:56;1.92;;;0.70;;
59788;SDS011;47353;51.614;5.530;2024-03-02T09:30:21;4.32;;;0.85;;
59788;SDS011;47353;51.614;5.530;2024-03-02T09:32:47;2.55;;;0.60;;
59788;SDS011;47353;51.614;5.530;2024-03-02T09:35:12;3.08;;;0.85;;
59788;SDS011;47353;51.614;5.530;2024-03-02T09:37:38;3.38;;;0.70;;
59788;SDS011;47353;51.614;5.530;2024-03-02T09:40:03;2.20;;;0.68;;
59788;SDS011;47353;51.614;5.530;2024-03-02T09:42:31;1.50;;;0.60;;
59788;SDS011;47353;51.614;5.530;2024-03-02T09:44:57;2.75;;;0.70;;
59788;SDS011;47353;51.614;5.530;2024-03-02T09:47:23;2.08;;;0.80;;
59788;SDS011;47353;51.614;5.530;2024-03-02T09:49:48;4.30;;;1.05;;
59788;SDS011;47353;51.614;5.530;2024-03-02T09:52:14;3.58;;;1.00;;
59788;SDS011;47353;51.614;5.530;2024-03-02T09:54:41;2.70;;;0.80;;
59788;SDS011;47353;51.614;5.530;2024-03-02T09:57:06;3.97;;;0.70;;
59788;SDS011;47353;51.614;5.530;2024-03-02T09:59:32;5.78;;;0.80;;
59788;SDS011;47353;51.614;5.530;2024-03-02T10:04:27;2.47;;;1.00;;
59788;SDS011;47353;51.614;5.530;2024-03-02T10:09:51;2.35;;;0.63;;
59788;SDS011;47353;51.614;5.530;2024-03-02T10:12:18;2.78;;;0.70;;
59788;SDS011;47353;51.614;5.530;2024-03-02T10:14:43;1.95;;;0.50;;
59788;SDS011;47353;51.614;5.530;2024-03-02T10:17:10;2.95;;;0.80;;
59788;SDS011;47353;51.614;5.530;2024-03-02T10:19:37;1.80;;;0.60;;
59788;SDS011;47353;51.614;5.530;2024-03-02T10:22:04;2.58;;;0.70;;
59788;SDS011;47353;51.614;5.530;2024-03-02T10:27:18;2.75;;;0.68;;
59788;SDS011;47353;51.614;5.530;2024-03-02T10:29:48;1.95;;;0.57;;
59788;SDS011;47353;51.614;5.530;2024-03-02T10:32:14;2.95;;;0.80;;
59788;SDS011;47353;51.614;5.530;2024-03-02T10:34:41;2.97;;;0.90;;
59788;SDS011;47353;51.614;5.530;2024-03-02T10:37:08;1.60;;;0.80;;
59788;SDS011;47353;51.614;5.530;2024-03-02T10:39:35;3.85;;;0.80;;
59788;SDS011;47353;51.614;5.530;2024-03-02T10:42:01;1.95;;;0.70;;
59788;SDS011;47353;51.614;5.530;2024-03-02T10:44:28;2.85;;;0.95;;
59788;SDS011;47353;51.614;5.530;2024-03-02T10:46:55;3.22;;;0.80;;
59788;SDS011;47353;51.614;5.530;2024-03-02T10:49:22;3.58;;;0.60;;
59788;SDS011;47353;51.614;5.530;2024-03-02T10:51:50;3.95;;;0.65;;
59788;SDS011;47353;51.614;5.530;2024-03-02T10:54:15;2.35;;;0.70;;
59788;SDS011;47353;51.614;5.530;2024-03-02T10:56:41;2.72;;;0.55;;
59788;SDS011;47353;51.614;5.530;2024-03-02T11:02:00;1.40;;;0.50;;
59788;SDS011;47353;51.614;5.530;2024-03-02T11:04:27;2.22;;;0.70;;
59788;SDS011;47353;51.614;5.530;2024-03-02T11:07:07;3.65;;;0.80;;
59788;SDS011;47353;51.614;5.530;2024-03-02T11:09:35;1.83;;;0.60;;
59788;SDS011;47353;51.614;5.530;2024-03-02T11:14:57;2.65;;;0.70;;
59788;SDS011;47353;51.614;5.530;2024-03-02T11:17:23;1.92;;;0.50;;
59788;SDS011;47353;51.614;5.530;2024-03-02T11:19:50;3.72;;;0.73;;
59788;SDS011;47353;51.614;5.530;2024-03-02T11:22:16;2.10;;;0.70;;
59788;SDS011;47353;51.614;5.530;2024-03-02T11:24:48;2.05;;;0.60;;
59788;SDS011;47353;51.614;5.530;2024-03-02T11:27:15;2.80;;;0.70;;
59788;SDS011;47353;51.614;5.530;2024-03-02T11:32:56;2.17;;;0.63;;
59788;SDS011;47353;51.614;5.530;2024-03-02T11:35:23;2.20;;;0.73;;
59788;SDS011;47353;51.614;5.530;2024-03-02T11:37:50;1.48;;;0.70;;
59788;SDS011;47353;51.614;5.530;2024-03-02T11:40:21;3.50;;;0.70;;
59788;SDS011;47353;51.614;5.530;2024-03-02T11:42:47;1.65;;;0.80;;
59788;SDS011;47353;51.614;5.530;2024-03-02T11:45:16;2.30;;;0.68;;
59788;SDS011;47353;51.614;5.530;2024-03-02T11:47:46;1.80;;;0.80;;
59788;SDS011;47353;51.614;5.530;2024-03-02T11:50:15;3.08;;;0.73;;
59788;SDS011;47353;51.614;5.530;2024-03-02T11:52:40;4.03;;;0.85;;
59788;SDS011;47353;51.614;5.530;2024-03-02T11:55:07;2.67;;;0.65;;
59788;SDS011;47353;51.614;5.530;2024-03-02T11:57:34;4.40;;;0.80;;
59788;SDS011;47353;51.614;5.530;2024-03-02T12:00:00;2.63;;;0.88;;
59788;SDS011;47353;51.614;5.530;2024-03-02T12:02:28;2.95;;;1.05;;
59788;SDS011;47353;51.614;5.530;2024-03-02T12:04:54;1.48;;;0.70;;
59788;SDS011;47353;51.614;5.530;2024-03-02T12:07:25;1.35;;;0.60;;
59788;SDS011;47353;51.614;5.530;2024-03-02T12:10:01;2.55;;;0.80;;
59788;SDS011;47353;51.614;5.530;2024-03-02T12:12:28;3.08;;;0.82;;
59788;SDS011;47353;51.614;5.530;2024-03-02T12:14:53;2.72;;;0.70;;
59788;SDS011;47353;51.614;5.530;2024-03-02T12:17:20;2.45;;;0.80;;
59788;SDS011;47353;51.614;5.530;2024-03-02T12:19:46;2.60;;;0.60;;
59788;SDS011;47353;51.614;5.530;2024-03-02T12:22:12;2.42;;;0.57;;
59788;SDS011;47353;51.614;5.530;2024-03-02T12:24:38;3.25;;;0.80;;
59788;SDS011;47353;51.614;5.530;2024-03-02T12:27:11;3.88;;;1.00;;
59788;SDS011;47353;51.614;5.530;2024-03-02T12:29:37;4.20;;;0.90;;
59788;SDS011;47353;51.614;5.530;2024-03-02T12:32:04;4.00;;;1.48;;
59788;SDS011;47353;51.614;5.530;2024-03-02T12:34:31;4.00;;;2.67;;
59788;SDS011;47353;51.614;5.530;2024-03-02T12:36:56;2.22;;;1.10;;
59788;SDS011;47353;51.614;5.530;2024-03-02T12:39:22;4.03;;;2.00;;
59788;SDS011;47353;51.614;5.530;2024-03-02T12:41:48;1.90;;;1.17;;
59788;SDS011;47353;51.614;5.530;2024-03-02T12:44:15;3.38;;;1.00;;
59788;SDS011;47353;51.614;5.530;2024-03-02T12:46:44;4.40;;;2.20;;
59788;SDS011;47353;51.614;5.530;2024-03-02T12:49:10;3.65;;;1.70;;
59788;SDS011;47353;51.614;5.530;2024-03-02T12:51:37;1.60;;;1.00;;
59788;SDS011;47353;51.614;5.530;2024-03-02T12:54:05;3.97;;;1.40;;
59788;SDS011;47353;51.614;5.530;2024-03-02T12:56:36;2.85;;;1.10;;
59788;SDS011;47353;51.614;5.530;2024-03-02T12:59:02;4.18;;;1.10;;
59788;SDS011;47353;51.614;5.530;2024-03-02T13:01:28;3.30;;;1.00;;
59788;SDS011;47353;51.614;5.530;2024-03-02T13:03:54;2.20;;;1.10;;
59788;SDS011;47353;51.614;5.530;2024-03-02T13:06:22;2.30;;;1.00;;
59788;SDS011;47353;51.614;5.530;2024-03-02T13:08:48;2.22;;;0.90;;
59788;SDS011;47353;51.614;5.530;2024-03-02T13:11:15;2.97;;;1.38;;
59788;SDS011;47353;51.614;5.530;2024-03-02T13:13:41;2.25;;;1.38;;
59788;SDS011;47353;51.614;5.530;2024-03-02T13:16:08;3.83;;;1.35;;
59788;SDS011;47353;51.614;5.530;2024-03-02T13:18:35;3.97;;;1.13;;
59788;SDS011;47353;51.614;5.530;2024-03-02T13:21:01;3.20;;;0.82;;
59788;SDS011;47353;51.614;5.530;2024-03-02T13:23:26;2.45;;;1.20;;
59788;SDS011;47353;51.614;5.530;2024-03-02T13:25:52;3.22;;;0.90;;
59788;SDS011;47353;51.614;5.530;2024-03-02T13:28:17;2.92;;;1.10;;
59788;SDS011;47353;51.614;5.530;2024-03-02T13:30:43;2.97;;;1.20;;
59788;SDS011;47353;51.614;5.530;2024-03-02T13:33:08;4.70;;;1.60;;
59788;SDS011;47353;51.614;5.530;2024-03-02T13:35:34;5.20;;;1.60;;
59788;SDS011;47353;51.614;5.530;2024-03-02T13:37:59;5.57;;;1.50;;
59788;SDS011;47353;51.614;5.530;2024-03-02T13:40:25;3.60;;;1.10;;
59788;SDS011;47353;51.614;5.530;2024-03-02T13:42:50;4.40;;;2.00;;
59788;SDS011;47353;51.614;5.530;2024-03-02T13:45:17;2.40;;;1.20;;
59788;SDS011;47353;51.614;5.530;2024-03-02T13:47:43;3.83;;;1.10;;
59788;SDS011;47353;51.614;5.530;2024-03-02T13:50:09;2.25;;;0.90;;
59788;SDS011;47353;51.614;5.530;2024-03-02T13:52:34;3.42;;;1.48;;
59788;SDS011;47353;51.614;5.530;2024-03-02T13:55:00;2.58;;;1.08;;
59788;SDS011;47353;51.614;5.530;2024-03-02T13:57:25;2.80;;;1.15;;
59788;SDS011;47353;51.614;5.530;2024-03-02T13:59:50;2.10;;;1.00;;
59788;SDS011;47353;51.614;5.530;2024-03-02T14:02:17;3.63;;;1.10;;
59788;SDS011;47353;51.614;5.530;2024-03-02T14:04:42;2.22;;;1.10;;
59788;SDS011;47353;51.614;5.530;2024-03-02T14:07:08;2.75;;;0.90;;
59788;SDS011;47353;51.614;5.530;2024-03-02T14:09:34;3.33;;;0.82;;
59788;SDS011;47353;51.614;5.530;2024-03-02T14:12:00;3.33;;;1.10;;
59788;SDS011;47353;51.614;5.530;2024-03-02T14:14:26;2.38;;;0.98;;
59788;SDS011;47353;51.614;5.530;2024-03-02T14:16:52;2.78;;;1.13;;
59788;SDS011;47353;51.614;5.530;2024-03-02T14:19:19;4.05;;;1.33;;
59788;SDS011;47353;51.614;5.530;2024-03-02T14:21:45;3.70;;;2.03;;
59788;SDS011;47353;51.614;5.530;2024-03-02T14:24:10;4.07;;;1.00;;
59788;SDS011;47353;51.614;5.530;2024-03-02T14:26:36;2.17;;;1.00;;
59788;SDS011;47353;51.614;5.530;2024-03-02T14:29:02;2.08;;;0.90;;
59788;SDS011;47353;51.614;5.530;2024-03-02T14:31:28;2.63;;;0.75;;
59788;SDS011;47353;51.614;5.530;2024-03-02T14:33:56;2.60;;;1.00;;
59788;SDS011;47353;51.614;5.530;2024-03-02T14:36:21;3.13;;;0.98;;
59788;SDS011;47353;51.614;5.530;2024-03-02T14:41:51;3.33;;;1.13;;
59788;SDS011;47353;51.614;5.530;2024-03-02T14:53:45;2.67;;;1.10;;
59788;SDS011;47353;51.614;5.530;2024-03-02T14:56:11;2.08;;;1.00;;
59788;SDS011;47353;51.614;5.530;2024-03-02T14:58:38;2.65;;;1.00;;
59788;SDS011;47353;51.614;5.530;2024-03-02T15:01:04;1.75;;;0.90;;
59788;SDS011;47353;51.614;5.530;2024-03-02T15:03:34;1.20;;;0.60;;
59788;SDS011;47353;51.614;5.530;2024-03-02T15:06:01;1.42;;;0.80;;
59788;SDS011;47353;51.614;5.530;2024-03-02T15:11:13;1.17;;;0.88;;
59788;SDS011;47353;51.614;5.530;2024-03-02T15:17:00;2.85;;;1.30;;
59788;SDS011;47353;51.614;5.530;2024-03-02T15:19:26;2.35;;;1.17;;
59788;SDS011;47353;51.614;5.530;2024-03-02T15:21:51;3.45;;;1.00;;
59788;SDS011;47353;51.614;5.530;2024-03-02T15:24:17;3.40;;;1.15;;
59788;SDS011;47353;51.614;5.530;2024-03-02T15:26:42;2.72;;;0.90;;
59788;SDS011;47353;51.614;5.530;2024-03-02T15:29:08;1.75;;;0.95;;